Time;durP1;ratioP1;P1;durP2;ratioP2;P2;SDS_P1;SDS_P2;PMS_P1;PMS_P2;Temp;Humidity;BMP_temperature;BMP_pressure;BME280_temperature;BME280_humidity;BME280_pressure;Samples;Min_cycle;Max_cycle;Signal;HPM_P1;HPM_P2
2021/09/03 00:00:53;;;;;;;13.88;8.85;;;9.90;99.90;;;;;;5097437;23;20450;-96
2021/09/03 00:07:09;;;;;;;15.57;9.52;;;9.80;99.90;;;;;;4945500;28;20817;-95
2021/09/03 00:10:07;;;;;;;14.90;10.07;;;9.80;99.90;;;;;;4948986;28;20473;-96
2021/09/03 00:13:12;;;;;;;13.93;10.60;;;9.70;99.90;;;;;;4965369;28;20425;-95
2021/09/03 00:15:53;;;;;;;14.48;10.02;;;9.80;99.90;;;;;;4963433;29;20430;-96
2021/09/03 00:22:25;;;;;;;15.10;10.38;;;9.80;99.90;;;;;;4961554;28;20440;-96
2021/09/03 00:25:04;;;;;;;16.45;11.05;;;9.80;99.90;;;;;;4861446;29;20450;-95
2021/09/03 00:27:56;;;;;;;14.23;11.13;;;9.70;99.90;;;;;;4859946;29;20464;-95
2021/09/03 00:31:16;;;;;;;14.57;10.40;;;9.80;99.90;;;;;;4871299;29;20455;-96
2021/09/03 00:34:34;;;;;;;16.77;10.02;;;9.90;99.90;;;;;;5104482;23;21527;-95
2021/09/03 00:37:23;;;;;;;13.50;10.70;;;10.00;99.90;;;;;;4765138;29;20423;-95
2021/09/03 00:40:04;;;;;;;16.23;10.73;;;9.80;99.90;;;;;;4925129;23;20449;-95
2021/09/03 00:42:34;;;;;;;16.73;10.60;;;9.80;99.90;;;;;;4982135;23;20932;-95
2021/09/03 00:45:02;;;;;;;16.77;10.77;;;9.70;99.90;;;;;;4921047;29;20931;-95
2021/09/03 00:47:30;;;;;;;16.25;10.60;;;9.70;99.90;;;;;;4920994;29;20429;-95
2021/09/03 00:50:06;;;;;;;14.77;9.95;;;9.70;99.90;;;;;;4922700;29;20433;-96
2021/09/03 00:52:34;;;;;;;14.82;10.02;;;9.80;99.90;;;;;;4921577;29;20952;-96
2021/09/03 00:55:10;;;;;;;15.27;10.27;;;9.80;99.90;;;;;;4921754;29;20488;-96
2021/09/03 00:57:54;;;;;;;14.50;9.73;;;9.80;99.90;;;;;;4922330;29;20496;-95
2021/09/03 01:00:25;;;;;;;13.98;9.70;;;9.80;99.90;;;;;;4921686;29;20488;-96
2021/09/03 01:02:57;;;;;;;14.35;9.40;;;9.80;99.90;;;;;;4921236;29;20527;-95
2021/09/03 01:05:28;;;;;;;12.23;9.55;;;9.90;99.90;;;;;;4920595;29;20433;-95
2021/09/03 01:07:56;;;;;;;12.95;10.05;;;9.80;99.90;;;;;;4922053;29;20425;-95
2021/09/03 01:10:42;;;;;;;14.48;9.70;;;9.80;99.90;;;;;;4921620;29;20435;-95
2021/09/03 01:13:22;;;;;;;14.48;9.10;;;9.90;99.90;;;;;;4922420;29;20546;-95
2021/09/03 01:16:04;;;;;;;13.20;10.13;;;9.90;99.90;;;;;;4921283;29;20935;-95
2021/09/03 01:18:42;;;;;;;12.35;9.32;;;9.80;99.90;;;;;;4921624;29;20455;-96
2021/09/03 01:21:15;;;;;;;12.65;9.00;;;9.80;99.90;;;;;;4920773;29;20460;-95
2021/09/03 01:23:56;;;;;;;12.70;8.68;;;9.90;99.90;;;;;;4921314;29;20494;-96
2021/09/03 01:26:26;;;;;;;11.82;8.75;;;10.00;99.90;;;;;;4921820;29;20453;-95
2021/09/03 01:28:54;;;;;;;15.77;8.82;;;10.00;99.90;;;;;;4921733;29;20437;-96
2021/09/03 01:31:32;;;;;;;11.27;7.90;;;10.00;99.90;;;;;;4921236;29;20436;-95
2021/09/03 01:33:59;;;;;;;15.35;8.50;;;10.00;99.90;;;;;;4920922;29;20500;-95
2021/09/03 01:36:30;;;;;;;13.10;8.25;;;10.00;99.90;;;;;;4933689;29;20413;-95
2021/09/03 01:39:02;;;;;;;14.02;8.50;;;9.90;99.90;;;;;;4933204;29;20430;-96
2021/09/03 01:41:32;;;;;;;11.30;8.38;;;10.00;99.90;;;;;;4926467;29;20899;-95
2021/09/03 01:43:59;;;;;;;11.07;8.00;;;9.90;99.90;;;;;;4924393;29;20447;-95
2021/09/03 01:46:27;;;;;;;11.23;7.80;;;10.00;99.90;;;;;;4925020;29;20427;-96
2021/09/03 01:48:56;;;;;;;11.55;8.15;;;9.90;99.90;;;;;;4925795;29;20515;-94
2021/09/03 01:51:23;;;;;;;10.85;8.20;;;9.90;99.90;;;;;;4926636;29;20460;-95
2021/09/03 01:53:50;;;;;;;10.57;8.27;;;9.90;99.90;;;;;;4924654;29;20427;-96
2021/09/03 01:56:18;;;;;;;13.25;8.00;;;10.00;99.90;;;;;;4923925;29;20505;-96
2021/09/03 01:58:47;;;;;;;12.57;7.82;;;10.00;99.90;;;;;;4923098;29;20431;-95
2021/09/03 02:01:14;;;;;;;10.90;7.75;;;10.00;99.90;;;;;;4923431;29;20434;-95
2021/09/03 02:03:42;;;;;;;11.15;7.85;;;10.00;99.90;;;;;;4922674;29;20454;-95
2021/09/03 02:06:09;;;;;;;13.07;7.95;;;10.00;99.90;;;;;;4923320;29;20798;-94
2021/09/03 02:08:36;;;;;;;11.13;7.72;;;9.90;99.90;;;;;;4923268;29;20438;-96
2021/09/03 02:11:04;;;;;;;13.18;8.38;;;9.90;99.90;;;;;;4929774;29;20428;-95
2021/09/03 02:13:33;;;;;;;13.50;8.82;;;9.80;99.90;;;;;;4924196;29;20428;-96
2021/09/03 02:16:00;;;;;;;12.32;8.40;;;9.70;99.90;;;;;;4922457;29;20503;-93
2021/09/03 02:18:28;;;;;;;13.95;8.52;;;9.70;99.90;;;;;;4922021;29;20438;-96
2021/09/03 02:20:55;;;;;;;11.10;7.97;;;9.70;99.90;;;;;;4922474;29;20494;-95
2021/09/03 02:23:23;;;;;;;11.77;8.43;;;9.70;99.90;;;;;;4924505;29;20526;-96
2021/09/03 02:25:50;;;;;;;13.43;8.45;;;9.70;99.90;;;;;;4924305;29;20490;-96
2021/09/03 02:28:20;;;;;;;21.85;9.18;;;9.60;99.90;;;;;;4925739;29;20438;-95
2021/09/03 02:30:47;;;;;;;10.27;7.88;;;9.60;99.90;;;;;;4922976;29;20776;-96
2021/09/03 02:33:15;;;;;;;12.10;8.02;;;9.70;99.90;;;;;;4923800;29;20432;-96
2021/09/03 02:35:43;;;;;;;13.93;8.45;;;9.70;99.90;;;;;;4923373;29;20934;-95
2021/09/03 02:38:16;;;;;;;11.75;8.13;;;9.60;99.90;;;;;;4922643;29;20801;-94
2021/09/03 02:40:44;;;;;;;12.05;8.88;;;9.50;99.90;;;;;;4922489;29;20431;-94
2021/09/03 02:43:18;;;;;;;14.63;9.23;;;9.50;99.90;;;;;;4919720;29;20449;-95
2021/09/03 02:45:46;;;;;;;14.10;8.82;;;9.60;99.90;;;;;;4919934;29;20440;-96
2021/09/03 02:48:25;;;;;;;11.35;8.13;;;9.50;99.90;;;;;;4920971;29;20822;-95
2021/09/03 02:50:55;;;;;;;12.57;8.60;;;9.50;99.90;;;;;;4919518;29;20433;-95
2021/09/03 02:53:26;;;;;;;13.65;8.70;;;9.50;99.90;;;;;;4919510;29;20477;-94
2021/09/03 02:55:53;;;;;;;12.68;8.50;;;9.50;99.90;;;;;;4918766;29;20429;-95
2021/09/03 02:58:23;;;;;;;13.48;8.70;;;9.50;99.90;;;;;;4919294;29;20508;-95
2021/09/03 03:00:57;;;;;;;11.18;7.95;;;9.50;99.90;;;;;;4920366;29;20435;-96
2021/09/03 03:03:38;;;;;;;12.37;7.83;;;9.60;99.90;;;;;;4920492;29;20932;-96
2021/09/03 03:06:15;;;;;;;16.85;7.82;;;9.60;99.90;;;;;;4920528;29;20489;-95
2021/09/03 03:08:47;;;;;;;12.50;7.50;;;9.60;99.90;;;;;;4922349;29;20461;-95
2021/09/03 03:11:18;;;;;;;10.93;7.53;;;9.60;99.90;;;;;;4921754;29;20430;-95
2021/09/03 03:13:47;;;;;;;9.32;6.80;;;9.60;99.90;;;;;;4920525;29;20508;-95
2021/09/03 03:16:16;;;;;;;10.48;7.00;;;9.80;99.90;;;;;;4918558;29;20460;-96
2021/09/03 03:18:43;;;;;;;10.77;7.30;;;9.70;99.90;;;;;;4917853;29;20429;-95
2021/09/03 03:21:10;;;;;;;13.02;7.65;;;9.70;99.90;;;;;;4928106;29;20409;-94
2021/09/03 03:23:37;;;;;;;10.10;7.43;;;9.60;99.90;;;;;;4932216;29;20528;-94
2021/09/03 03:26:13;;;;;;;12.48;7.57;;;9.60;99.90;;;;;;4919059;29;20516;-95
2021/09/03 03:28:40;;;;;;;12.30;7.85;;;9.50;99.90;;;;;;4917176;29;20515;-95
2021/09/03 03:31:07;;;;;;;15.15;8.35;;;9.50;99.90;;;;;;4917726;29;20433;-95
2021/09/03 03:33:34;;;;;;;12.00;8.20;;;9.30;99.90;;;;;;4917526;29;20440;-94
2021/09/03 03:36:02;;;;;;;11.05;7.93;;;9.30;99.90;;;;;;4917379;29;20433;-95
2021/09/03 03:38:29;;;;;;;12.27;7.75;;;9.40;99.90;;;;;;4917341;29;20937;-94
2021/09/03 03:40:56;;;;;;;12.45;7.28;;;9.30;99.90;;;;;;4917751;29;20426;-95
2021/09/03 03:43:23;;;;;;;10.98;7.80;;;9.50;99.90;;;;;;4917121;29;20785;-94
2021/09/03 03:45:50;;;;;;;10.95;7.47;;;9.50;99.90;;;;;;4917337;29;20435;-94
2021/09/03 03:48:17;;;;;;;12.00;7.60;;;9.50;99.90;;;;;;4917114;29;20445;-94
2021/09/03 03:50:44;;;;;;;10.88;7.28;;;9.60;99.90;;;;;;4917589;29;20516;-95
2021/09/03 03:53:12;;;;;;;10.52;6.90;;;9.70;99.90;;;;;;4917644;29;20433;-94
2021/09/03 03:55:39;;;;;;;12.98;7.00;;;9.80;99.90;;;;;;4917395;29;20433;-95
2021/09/03 03:58:06;;;;;;;12.20;7.03;;;9.80;99.90;;;;;;4917271;29;20491;-95
2021/09/03 04:00:33;;;;;;;9.02;6.45;;;9.80;99.90;;;;;;4916796;29;20440;-95
2021/09/03 04:03:00;;;;;;;11.25;7.10;;;9.70;99.90;;;;;;4901321;29;20429;-94
2021/09/03 04:05:27;;;;;;;11.40;7.55;;;9.80;99.90;;;;;;4917240;29;20437;-95
2021/09/03 04:07:54;;;;;;;13.95;7.15;;;9.80;99.90;;;;;;4918153;29;20831;-94
2021/09/03 04:10:22;;;;;;;13.15;8.20;;;9.70;99.90;;;;;;4917254;29;20437;-95
2021/09/03 04:12:50;;;;;;;11.32;7.72;;;9.60;99.90;;;;;;4917025;29;20429;-95
2021/09/03 04:15:17;;;;;;;14.40;7.50;;;9.60;99.90;;;;;;4916759;29;20534;-94
2021/09/03 04:17:45;;;;;;;12.40;7.63;;;9.60;99.90;;;;;;4917023;29;20464;-94
2021/09/03 04:20:12;;;;;;;12.07;8.07;;;9.60;99.90;;;;;;4917165;29;20951;-94
2021/09/03 04:22:40;;;;;;;11.68;8.50;;;9.60;99.90;;;;;;4917130;29;20431;-96
2021/09/03 04:25:07;;;;;;;15.03;8.37;;;9.60;99.90;;;;;;4916771;29;21006;-94
2021/09/03 04:27:36;;;;;;;13.60;8.13;;;9.50;99.90;;;;;;4916630;29;20430;-94
2021/09/03 04:30:04;;;;;;;13.13;8.02;;;9.50;99.90;;;;;;4916511;29;20440;-95
2021/09/03 04:32:32;;;;;;;12.38;8.23;;;9.40;99.90;;;;;;4917425;29;20508;-95
2021/09/03 04:34:59;;;;;;;14.73;8.35;;;9.20;99.90;;;;;;4917006;29;20928;-95
2021/09/03 04:37:26;;;;;;;13.05;8.73;;;9.20;99.90;;;;;;4917895;29;20527;-95
2021/09/03 04:39:54;;;;;;;11.82;8.13;;;9.30;99.90;;;;;;4917944;29;20444;-94
2021/09/03 04:42:21;;;;;;;11.15;7.82;;;9.30;99.90;;;;;;4901451;29;20589;-93
2021/09/03 04:44:48;;;;;;;14.60;8.27;;;9.40;99.90;;;;;;4917490;29;20478;-94
2021/09/03 04:47:17;;;;;;;10.65;7.75;;;9.50;99.90;;;;;;4918539;29;20464;-94
2021/09/03 04:49:44;;;;;;;13.00;8.75;;;9.60;99.90;;;;;;4917347;29;20465;-94
2021/09/03 04:52:11;;;;;;;13.20;9.10;;;9.50;99.90;;;;;;4917484;29;20416;-95
2021/09/03 04:54:39;;;;;;;15.95;9.40;;;9.30;99.90;;;;;;4918801;29;20482;-96
2021/09/03 04:57:06;;;;;;;12.50;8.60;;;9.30;99.90;;;;;;4916655;29;20529;-95
2021/09/03 04:59:34;;;;;;;14.00;7.85;;;9.40;99.90;;;;;;4918221;29;20466;-94
2021/09/03 05:02:01;;;;;;;13.03;8.20;;;9.60;99.90;;;;;;4919654;29;20433;-95
2021/09/03 05:04:32;;;;;;;12.48;7.80;;;9.70;99.90;;;;;;4904495;29;20451;-95
2021/09/03 05:06:59;;;;;;;12.57;7.57;;;9.80;99.90;;;;;;4932054;29;20436;-94
2021/09/03 05:10:05;;;;;;;13.07;8.03;;;9.80;99.90;;;;;;4929331;29;20433;-95
2021/09/03 05:12:33;;;;;;;13.45;7.78;;;9.80;99.90;;;;;;4921763;29;20812;-95
2021/09/03 05:15:05;;;;;;;13.85;7.95;;;9.80;99.90;;;;;;4921608;29;20464;-94
2021/09/03 05:17:33;;;;;;;11.25;7.40;;;9.90;99.90;;;;;;4920678;29;20440;-94
2021/09/03 06:15:18;;;;;;;10.73;6.60;;;11.20;99.90;;;;;;5322067;23;20417;-96
2021/09/03 06:17:59;;;;;;;8.63;6.40;;;11.10;99.90;;;;;;4928188;29;20452;-95
2021/09/03 06:20:58;;;;;;;10.70;6.25;;;11.20;99.90;;;;;;4915137;23;20433;-96
2021/09/03 06:23:29;;;;;;;11.02;6.30;;;11.40;99.90;;;;;;4945070;28;20412;-95
2021/09/03 06:25:56;;;;;;;12.32;5.97;;;11.60;99.90;;;;;;4943564;29;20430;-94
2021/09/03 06:28:24;;;;;;;9.02;5.60;;;12.40;99.90;;;;;;4946439;29;20429;-96
2021/09/03 06:31:21;;;;;;;10.55;5.35;;;13.50;99.90;;;;;;4949643;29;20450;-96
2021/09/03 06:33:48;;;;;;;8.75;4.82;;;15.10;99.90;;;;;;4867233;29;20825;-96
2021/09/03 06:36:15;;;;;;;8.35;4.50;;;16.20;99.90;;;;;;4868474;29;20444;-96
2021/09/03 06:38:44;;;;;;;5.85;4.43;;;16.70;99.90;;;;;;4865006;29;20512;-96
2021/09/03 06:41:11;;;;;;;6.05;4.72;;;17.10;99.90;;;;;;4864440;29;20441;-95
2021/09/03 06:43:39;;;;;;;8.52;4.63;;;17.00;99.90;;;;;;4864046;29;20473;-96
2021/09/03 06:46:06;;;;;;;8.20;4.90;;;16.70;99.90;;;;;;4864398;29;20433;-96
2021/09/03 06:48:34;;;;;;;8.52;4.68;;;16.40;99.90;;;;;;4864765;29;20515;-96
2021/09/03 06:51:01;;;;;;;6.75;4.75;;;16.20;99.90;;;;;;4868063;29;21061;-94
2021/09/03 06:53:29;;;;;;;10.20;5.03;;;16.00;99.90;;;;;;4881267;29;20439;-96
2021/09/03 06:55:58;;;;;;;8.05;4.93;;;16.00;99.90;;;;;;4866615;29;20439;-96
2021/09/03 06:58:25;;;;;;;8.10;4.80;;;15.90;99.90;;;;;;4864217;29;20893;-95
2021/09/03 07:00:54;;;;;;;8.88;4.57;;;15.80;99.90;;;;;;4864502;29;21023;-96
2021/09/03 07:03:22;;;;;;;6.85;4.72;;;15.70;99.90;;;;;;4864164;29;20435;-95
2021/09/03 07:05:49;;;;;;;6.60;4.43;;;15.80;99.90;;;;;;4864127;29;20964;-95
2021/09/03 07:08:19;;;;;;;8.48;4.97;;;15.90;99.90;;;;;;4864151;29;20488;-95
2021/09/03 07:10:46;;;;;;;7.25;4.60;;;16.00;99.90;;;;;;4899657;29;20434;-95
2021/09/03 07:13:16;;;;;;;7.43;4.55;;;16.00;99.90;;;;;;4940299;29;20454;-96
2021/09/03 07:15:46;;;;;;;8.63;4.75;;;16.00;99.90;;;;;;4940490;29;20426;-95
2021/09/03 07:18:14;;;;;;;8.30;4.43;;;15.90;99.90;;;;;;4939855;29;20436;-94
2021/09/03 07:20:42;;;;;;;6.90;4.65;;;16.10;99.90;;;;;;4939735;29;20952;-95
2021/09/03 07:23:12;;;;;;;6.95;4.35;;;16.40;99.90;;;;;;4940159;29;20436;-96
2021/09/03 07:25:40;;;;;;;7.25;4.10;;;16.40;99.90;;;;;;4939705;29;20449;-96
2021/09/03 07:28:07;;;;;;;6.05;4.00;;;16.50;99.90;;;;;;4940212;29;20832;-96
2021/09/03 07:30:35;;;;;;;5.65;4.07;;;16.50;99.90;;;;;;4939624;29;20430;-95
2021/09/03 07:33:05;;;;;;;7.72;4.38;;;16.70;99.90;;;;;;4940419;29;20426;-94
2021/09/03 07:35:35;;;;;;;6.23;4.00;;;16.90;99.90;;;;;;4940165;29;20433;-95
2021/09/03 07:38:03;;;;;;;8.77;4.38;;;17.00;99.90;;;;;;4939720;29;20485;-95
2021/09/03 07:40:32;;;;;;;6.80;4.10;;;16.90;99.90;;;;;;4939970;29;20429;-95
2021/09/03 07:43:06;;;;;;;7.25;4.05;;;16.50;99.90;;;;;;4939606;29;20429;-95
2021/09/03 07:45:41;;;;;;;6.25;3.95;;;16.50;99.90;;;;;;4940085;29;20452;-95
2021/09/03 07:48:11;;;;;;;6.40;3.85;;;16.40;99.90;;;;;;4939923;29;20476;-95
2021/09/03 07:50:41;;;;;;;7.30;4.18;;;16.40;99.90;;;;;;4939615;29;20502;-95
2021/09/03 07:53:17;;;;;;;6.25;3.60;;;16.60;99.90;;;;;;4939879;29;20451;-95
2021/09/03 07:55:50;;;;;;;7.65;3.75;;;16.60;99.90;;;;;;4939831;29;20829;-95
2021/09/03 07:58:18;;;;;;;9.55;3.83;;;16.50;99.90;;;;;;4939893;29;20988;-96
2021/09/03 08:00:54;;;;;;;6.53;4.07;;;16.50;99.90;;;;;;4939360;29;20956;-95
2021/09/03 08:03:22;;;;;;;5.37;3.63;;;16.50;99.90;;;;;;4939428;29;20430;-95
2021/09/03 08:05:53;;;;;;;8.23;3.60;;;16.60;99.90;;;;;;4939399;29;20437;-95
2021/09/03 08:08:27;;;;;;;5.83;4.00;;;16.40;99.90;;;;;;4939859;29;20792;-95
2021/09/03 08:10:59;;;;;;;5.90;3.92;;;16.30;99.90;;;;;;4939812;29;20446;-95
2021/09/03 08:13:44;;;;;;;6.67;4.20;;;16.30;99.90;;;;;;4939352;29;20785;-94
2021/09/03 08:16:28;;;;;;;5.35;3.90;;;16.50;99.90;;;;;;4940411;29;20438;-95
2021/09/03 08:19:00;;;;;;;6.78;3.95;;;16.70;99.90;;;;;;4939869;29;20900;-96
2021/09/03 08:21:29;;;;;;;7.40;3.92;;;16.70;99.90;;;;;;4939582;29;20525;-96
2021/09/03 08:23:57;;;;;;;6.97;3.80;;;16.90;99.90;;;;;;4939311;29;20490;-95
2021/09/03 08:26:27;;;;;;;5.90;3.55;;;17.00;99.90;;;;;;4940044;29;20437;-93
2021/09/03 08:28:59;;;;;;;6.82;3.83;;;17.10;99.90;;;;;;4939676;29;20452;-95
2021/09/03 08:31:27;;;;;;;6.47;3.53;;;17.10;99.90;;;;;;4939523;29;20947;-95
2021/09/03 08:33:54;;;;;;;6.33;3.50;;;17.10;99.90;;;;;;4939300;29;20425;-94
2021/09/03 08:36:24;;;;;;;5.17;3.30;;;17.20;99.90;;;;;;4942553;28;20430;-95
2021/09/03 08:38:52;;;;;;;7.22;3.60;;;17.20;99.90;;;;;;4955817;29;20452;-95
2021/09/03 08:41:19;;;;;;;5.30;3.15;;;17.40;99.90;;;;;;4940202;29;20434;-94
2021/09/03 08:43:46;;;;;;;6.68;3.75;;;17.30;99.90;;;;;;4940658;29;20425;-95
2021/09/03 08:46:17;;;;;;;7.15;3.55;;;17.30;99.90;;;;;;4942676;29;20955;-94
2021/09/03 08:48:45;;;;;;;5.30;3.40;;;17.00;99.90;;;;;;4942548;29;20452;-94
2021/09/03 08:51:12;;;;;;;6.07;3.33;;;17.10;99.90;;;;;;4942859;29;20426;-94
2021/09/03 08:53:40;;;;;;;5.37;3.67;;;17.40;99.90;;;;;;4942460;29;20430;-95
2021/09/03 08:56:07;;;;;;;5.82;3.58;;;17.60;99.90;;;;;;4943112;29;20434;-94
2021/09/03 08:58:35;;;;;;;9.10;3.70;;;17.70;99.90;;;;;;4943321;29;20448;-94
2021/09/03 09:01:14;;;;;;;5.10;3.40;;;17.80;99.90;;;;;;4942985;29;20438;-95
2021/09/03 09:03:47;;;;;;;6.05;3.53;;;17.60;99.90;;;;;;4943144;29;20449;-95
2021/09/03 09:06:25;;;;;;;5.50;3.33;;;17.60;99.90;;;;;;4942601;29;20441;-93
2021/09/03 09:09:03;;;;;;;4.40;3.05;;;17.80;99.90;;;;;;4942727;29;20428;-95
2021/09/03 09:11:32;;;;;;;5.07;3.20;;;18.00;99.90;;;;;;4943316;29;20434;-95
2021/09/03 09:14:05;;;;;;;5.03;3.40;;;18.10;99.90;;;;;;4942332;29;20521;-94
2021/09/03 09:16:33;;;;;;;7.45;3.00;;;18.50;99.90;;;;;;4942366;29;20433;-94
2021/09/03 09:19:05;;;;;;;3.83;3.13;;;19.00;99.90;;;;;;4942420;29;20432;-94
2021/09/03 09:21:38;;;;;;;4.30;2.90;;;19.30;99.90;;;;;;4942033;29;20971;-94
2021/09/03 09:24:16;;;;;;;4.38;3.10;;;19.30;99.90;;;;;;4941900;29;20432;-95
2021/09/03 09:26:54;;;;;;;4.40;3.00;;;19.50;99.90;;;;;;4942925;29;20429;-94
2021/09/03 09:29:31;;;;;;;6.30;3.08;;;19.60;99.90;;;;;;4941692;29;20432;-95
2021/09/03 09:32:04;;;;;;;4.80;3.10;;;19.40;99.90;;;;;;4943002;29;20436;-94
2021/09/03 09:34:33;;;;;;;5.32;3.30;;;19.10;99.90;;;;;;4942285;29;20436;-95
2021/09/03 09:37:05;;;;;;;5.85;3.30;;;19.10;99.90;;;;;;4942133;29;20437;-95
2021/09/03 09:40:07;;;;;;;6.03;2.95;;;19.00;99.90;;;;;;4942275;29;20488;-94
2021/09/03 09:42:35;;;;;;;4.93;3.10;;;19.10;99.90;;;;;;4865834;29;20437;-94
2021/09/03 09:45:07;;;;;;;8.38;3.38;;;19.20;99.90;;;;;;4865324;29;20449;-94
2021/09/03 09:47:36;;;;;;;4.67;2.90;;;19.10;99.90;;;;;;4866013;29;20436;-96
2021/09/03 09:50:26;;;;;;;5.45;3.33;;;19.20;99.90;;;;;;4866369;29;20456;-94
2021/09/03 09:53:06;;;;;;;5.63;3.20;;;19.10;99.90;;;;;;4865558;29;20479;-95
2021/09/03 09:55:33;;;;;;;5.95;3.08;;;19.30;99.90;;;;;;4865478;29;20429;-95
2021/09/03 09:58:14;;;;;;;5.43;3.15;;;19.10;99.90;;;;;;4866366;29;20433;-95
2021/09/03 10:00:42;;;;;;;5.15;3.00;;;19.00;99.90;;;;;;4865191;29;20524;-94
2021/09/03 10:03:10;;;;;;;7.70;3.33;;;19.30;99.90;;;;;;4865636;29;20433;-95
2021/09/03 10:05:40;;;;;;;5.28;3.33;;;19.70;99.90;;;;;;5007241;23;20996;-96
2021/09/03 10:08:08;;;;;;;5.13;2.90;;;20.10;99.90;;;;;;4946561;28;20413;-95
2021/09/03 10:10:44;;;;;;;5.00;2.60;;;20.30;99.90;;;;;;4939331;29;20425;-93
2021/09/03 10:13:11;;;;;;;3.70;2.60;;;20.30;99.90;;;;;;4943427;29;20429;-94
2021/09/03 10:15:42;;;;;;;3.70;2.67;;;20.30;99.90;;;;;;4944645;29;20433;-96
2021/09/03 10:18:14;;;;;;;3.83;2.10;;;20.20;99.90;;;;;;4943295;29;20430;-96
2021/09/03 10:20:52;;;;;;;4.32;2.50;;;20.10;97.30;;;;;;4946003;29;20521;-95
2021/09/03 10:23:51;;;;;;;3.33;2.45;;;19.90;99.90;;;;;;5182964;23;20476;-95
2021/09/03 10:26:39;;;;;;;4.95;2.85;;;19.90;96.00;;;;;;4927882;29;20433;-94
2021/09/03 10:29:27;;;;;;;3.75;2.28;;;19.90;99.40;;;;;;4928764;29;20432;-95
2021/09/03 10:34:51;;;;;;;4.20;2.50;;;19.90;95.60;;;;;;4952774;29;20538;-94
2021/09/03 10:37:29;;;;;;;3.33;2.50;;;19.80;98.40;;;;;;4935141;29;20413;-95
2021/09/03 10:40:10;;;;;;;5.53;2.40;;;19.80;96.50;;;;;;4953210;29;20459;-95
2021/09/03 10:42:46;;;;;;;3.38;2.40;;;19.70;99.90;;;;;;4949855;29;20514;-95
2021/09/03 10:45:36;;;;;;;3.72;2.40;;;19.90;99.90;;;;;;4933253;29;20458;-95
2021/09/03 10:48:26;;;;;;;4.45;2.60;;;20.20;97.70;;;;;;4948761;29;20454;-95
2021/09/03 10:51:08;;;;;;;3.63;2.30;;;20.20;97.90;;;;;;4951123;29;20407;-95
2021/09/03 10:53:55;;;;;;;6.90;2.75;;;20.40;99.90;;;;;;4947304;29;20446;-94
2021/09/03 10:56:23;;;;;;;3.58;2.50;;;20.40;99.90;;;;;;4949948;29;20407;-95
2021/09/03 11:03:10;;;;;;;3.95;2.55;;;20.50;97.20;;;;;;5053462;23;20420;-94
2021/09/03 11:06:36;;;;;;;4.28;2.45;;;20.50;97.80;;;;;;4911780;29;20556;-96
2021/09/03 11:09:20;;;;;;;3.33;2.60;;;20.60;97.10;;;;;;4928422;29;20489;-96
2021/09/03 11:12:21;;;;;;;5.43;2.50;;;20.50;99.10;;;;;;4911401;29;20484;-95
2021/09/03 11:15:14;;;;;;;5.03;2.72;;;20.60;98.30;;;;;;4928847;29;20484;-96
2021/09/03 11:17:51;;;;;;;3.33;2.60;;;20.80;99.90;;;;;;4917494;29;20453;-95
2021/09/03 11:20:18;;;;;;;4.47;2.70;;;21.00;96.90;;;;;;4913123;29;20451;-96
2021/09/03 11:22:45;;;;;;;3.47;2.40;;;20.90;98.20;;;;;;4911408;29;20414;-96
2021/09/03 11:25:15;;;;;;;4.80;2.37;;;20.80;97.10;;;;;;4913603;29;20417;-94
2021/09/03 11:27:48;;;;;;;4.30;2.53;;;21.00;98.20;;;;;;4912991;29;20417;-96
2021/09/03 11:30:18;;;;;;;3.78;2.60;;;21.10;99.40;;;;;;4910141;29;20932;-95
2021/09/03 11:32:49;;;;;;;3.80;2.50;;;21.30;95.50;;;;;;4914026;29;20445;-96
2021/09/03 11:35:22;;;;;;;6.57;3.00;;;21.20;94.40;;;;;;4917659;28;20439;-95
2021/09/03 11:37:50;;;;;;;3.97;2.78;;;21.30;96.80;;;;;;4956009;29;20505;-96
2021/09/03 11:43:44;;;;;;;3.83;2.80;;;21.30;94.50;;;;;;4931487;29;20448;-95
2021/09/03 11:46:37;;;;;;;5.25;3.78;;;21.60;97.60;;;;;;4961765;23;20439;31
2021/09/03 11:49:05;;;;;;;3.83;2.80;;;21.90;98.50;;;;;;4941871;23;20435;-96
2021/09/03 11:51:35;;;;;;;3.67;2.78;;;22.00;95.50;;;;;;5088274;23;20436;-95
2021/09/03 11:54:02;;;;;;;4.28;2.80;;;22.10;98.30;;;;;;4951319;23;20427;-96
2021/09/03 11:56:30;;;;;;;3.00;2.40;;;22.10;98.90;;;;;;4948086;29;20411;-94
2021/09/03 11:59:09;;;;;;;3.97;2.65;;;22.30;97.40;;;;;;4993195;23;20419;-96
2021/09/03 12:02:04;;;;;;;3.60;2.60;;;22.60;92.20;;;;;;4944271;29;20431;-95
2021/09/03 12:04:40;;;;;;;3.67;2.67;;;22.80;94.30;;;;;;4944465;29;20435;-96
2021/09/03 12:07:31;;;;;;;8.68;2.90;;;22.50;92.20;;;;;;4954497;23;20426;-96
2021/09/03 12:10:02;;;;;;;4.03;2.85;;;22.80;94.70;;;;;;4964091;23;20481;-96
2021/09/03 12:13:17;;;;;;;4.43;2.78;;;23.00;91.70;;;;;;4949011;29;20438;-96
2021/09/03 12:16:08;;;;;;;3.33;2.57;;;23.50;92.00;;;;;;4945312;29;20432;-96
2021/09/03 12:18:52;;;;;;;4.40;2.72;;;23.40;92.00;;;;;;4992052;23;20880;-95
2021/09/03 12:21:33;;;;;;;3.97;2.72;;;23.60;80.90;;;;;;4960083;23;20450;-94
2021/09/03 12:24:32;;;;;;;5.07;2.95;;;23.60;89.40;;;;;;4950538;29;20436;-96
2021/09/03 12:27:11;;;;;;;4.32;3.03;;;24.10;84.00;;;;;;4956050;23;20855;-96
2021/09/03 12:29:39;;;;;;;3.35;2.80;;;24.50;83.30;;;;;;4946914;28;20546;-96
2021/09/03 12:32:15;;;;;;;7.85;3.45;;;24.90;81.50;;;;;;4945948;29;20474;-96
2021/09/03 12:34:45;;;;;;;4.88;2.90;;;24.90;87.40;;;;;;4946026;29;20430;-96
2021/09/03 12:45:49;;;;;;;5.50;2.83;;;25.10;74.60;;;;;;4904584;29;20515;-96
2021/09/03 12:51:34;;;;;;;5.78;2.97;;;25.90;73.90;;;;;;5080150;23;20445;-96
2021/09/03 12:54:02;;;;;;;6.00;2.90;;;26.10;71.20;;;;;;4947741;28;20940;-95
2021/09/03 12:56:37;;;;;;;10.00;3.00;;;25.40;71.40;;;;;;4944720;29;20762;-96
2021/09/03 12:59:05;;;;;;;3.47;2.65;;;25.70;82.10;;;;;;4947639;29;20433;-96
2021/09/03 13:04:30;;;;;;;3.17;2.60;;;26.10;79.40;;;;;;5252194;23;20809;-96
2021/09/03 13:14:59;;;;;;;8.35;2.90;;;27.50;73.40;;;;;;4799082;29;20440;-96
2021/09/03 13:17:54;;;;;;;5.95;2.60;;;27.70;69.50;;;;;;4745103;30;20462;-96
2021/09/03 13:23:09;;;;;;;4.05;2.65;;;27.80;68.80;;;;;;5013820;23;20449;-96
2021/09/03 13:25:39;;;;;;;4.00;2.72;;;27.40;66.10;;;;;;4944022;29;20450;-96
2021/09/03 13:28:11;;;;;;;5.17;3.10;;;27.50;64.40;;;;;;4947813;29;20430;-95
2021/09/03 13:57:23;;;;;;;3.78;2.83;;;26.30;65.40;;;;;;2528870;23;20703;-94
2021/09/03 13:59:50;;;;;;;4.15;2.88;;;26.30;64.80;;;;;;4931108;29;20437;-92
2021/09/03 14:02:19;;;;;;;4.40;2.75;;;26.30;67.40;;;;;;4920017;29;20441;-93
2021/09/03 14:05:04;;;;;;;4.75;2.60;;;26.70;68.40;;;;;;4912896;29;20425;-93
2021/09/03 14:07:34;;;;;;;5.70;2.80;;;27.40;63.60;;;;;;4921338;29;20520;-92
2021/09/03 14:10:02;;;;;;;4.07;2.80;;;27.60;62.40;;;;;;4927982;29;20947;-92
2021/09/03 14:12:29;;;;;;;3.90;3.00;;;27.10;68.40;;;;;;4913483;29;20413;-92
2021/09/03 14:14:56;;;;;;;4.38;2.90;;;26.10;74.20;;;;;;4911967;29;20433;-93
2021/09/03 14:17:32;;;;;;;3.53;3.00;;;25.40;74.70;;;;;;4916026;29;20409;-93
2021/09/03 14:20:01;;;;;;;4.32;2.88;;;24.60;75.60;;;;;;4910275;29;20422;-93
2021/09/03 14:22:30;;;;;;;6.55;3.33;;;24.60;75.00;;;;;;4919874;29;20429;-92
2021/09/03 14:24:59;;;;;;;4.15;3.10;;;24.60;77.80;;;;;;4916510;29;20444;-92
2021/09/03 14:27:27;;;;;;;3.90;2.90;;;23.90;80.10;;;;;;4915012;29;20440;-96
2021/09/03 14:29:56;;;;;;;4.60;3.13;;;23.50;77.20;;;;;;4919278;29;20898;-94
2021/09/03 14:32:23;;;;;;;6.77;3.10;;;23.90;78.80;;;;;;4917045;29;20909;-92
2021/09/03 14:34:50;;;;;;;4.88;2.92;;;24.60;77.70;;;;;;4903754;29;20929;-95
2021/09/03 14:37:17;;;;;;;4.85;2.90;;;25.80;70.30;;;;;;4903886;29;20445;-93
2021/09/03 14:39:44;;;;;;;3.70;2.83;;;26.70;65.00;;;;;;4903326;29;20433;-91
2021/09/03 14:42:11;;;;;;;6.57;3.03;;;27.00;66.20;;;;;;4901939;29;20539;-95
2021/09/03 14:44:38;;;;;;;6.63;3.03;;;27.30;71.20;;;;;;4903194;29;20430;-94
2021/09/03 14:47:05;;;;;;;3.97;2.97;;;27.60;65.10;;;;;;4903810;29;20452;-93
2021/09/03 14:49:33;;;;;;;3.65;2.67;;;27.50;69.40;;;;;;4902623;29;20531;-94
2021/09/03 14:52:00;;;;;;;4.13;2.70;;;27.90;68.40;;;;;;4902669;29;20960;-94
2021/09/03 14:54:27;;;;;;;7.50;3.00;;;28.10;60.10;;;;;;4903299;29;20429;-93
2021/09/03 14:56:54;;;;;;;5.63;3.03;;;27.90;65.40;;;;;;4902427;29;20433;-92
2021/09/03 14:59:21;;;;;;;5.85;2.50;;;28.30;66.50;;;;;;4914572;29;20448;-93
2021/09/03 15:01:50;;;;;;;4.63;2.90;;;28.40;63.00;;;;;;4918496;29;20433;-94
2021/09/03 15:04:17;;;;;;;3.47;2.50;;;28.50;67.80;;;;;;4918260;29;20953;-94
2021/09/03 15:06:45;;;;;;;3.28;2.85;;;28.00;60.50;;;;;;4918485;29;20444;-94
2021/09/03 15:09:13;;;;;;;4.45;2.80;;;27.60;64.20;;;;;;4917999;29;20425;-94
2021/09/03 15:11:41;;;;;;;4.50;2.97;;;27.20;64.30;;;;;;4917880;29;20425;-93
2021/09/03 15:14:12;;;;;;;5.03;2.90;;;27.60;65.90;;;;;;4918231;29;20429;-94
2021/09/03 15:16:40;;;;;;;3.78;2.58;;;27.90;65.80;;;;;;4918313;29;20440;-94
2021/09/03 15:19:08;;;;;;;4.15;2.65;;;28.50;64.50;;;;;;4918114;29;20436;-93